sensor_id;sensor_type;location;lat;lon;timestamp;pressure;altitude;pressure_sealevel;temperature;humidity
8697;BME280;4385;48.848;8.924;2023-02-22T00:00:58;97320.75;;;15.66;100.00
8697;BME280;4385;48.848;8.924;2023-02-22T00:03:29;97323.28;;;15.66;100.00
8697;BME280;4385;48.848;8.924;2023-02-22T00:05:58;97314.00;;;15.65;100.00
8697;BME280;4385;48.848;8.924;2023-02-22T00:08:26;97311.47;;;15.64;100.00
8697;BME280;4385;48.848;8.924;2023-02-22T00:10:59;97304.69;;;15.63;100.00
8697;BME280;4385;48.848;8.924;2023-02-22T00:13:25;97308.97;;;15.61;100.00
8697;BME280;4385;48.848;8.924;2023-02-22T00:15:53;97301.38;;;15.59;100.00
8697;BME280;4385;48.848;8.924;2023-02-22T00:18:19;97305.63;;;15.58;100.00
8697;BME280;4385;48.848;8.924;2023-02-22T00:20:44;97300.53;;;15.58;100.00
8697;BME280;4385;48.848;8.924;2023-02-22T00:23:19;97304.78;;;15.56;100.00
8697;BME280;4385;48.848;8.924;2023-02-22T00:25:46;97300.56;;;15.55;100.00
8697;BME280;4385;48.848;8.924;2023-02-22T00:28:12;97301.44;;;15.54;100.00
8697;BME280;4385;48.848;8.924;2023-02-22T00:30:39;97302.31;;;15.50;100.00
8697;BME280;4385;48.848;8.924;2023-02-22T00:33:08;97300.66;;;15.49;100.00
8697;BME280;4385;48.848;8.924;2023-02-22T00:35:33;97293.91;;;15.48;100.00
8697;BME280;4385;48.848;8.924;2023-02-22T00:38:00;97292.22;;;15.47;100.00
8697;BME280;4385;48.848;8.924;2023-02-22T00:40:30;97293.94;;;15.45;100.00
8697;BME280;4385;48.848;8.924;2023-02-22T00:42:57;97290.56;;;15.44;100.00
8697;BME280;4385;48.848;8.924;2023-02-22T00:45:25;97290.56;;;15.43;100.00
8697;BME280;4385;48.848;8.924;2023-02-22T00:47:52;97288.91;;;15.42;100.00
8697;BME280;4385;48.848;8.924;2023-02-22T00:50:19;97288.91;;;15.42;100.00
8697;BME280;4385;48.848;8.924;2023-02-22T00:52:45;97285.53;;;15.41;100.00
8697;BME280;4385;48.848;8.924;2023-02-22T00:55:16;97281.31;;;15.40;100.00
8697;BME280;4385;48.848;8.924;2023-02-22T00:57:42;97278.78;;;15.39;100.00
8697;BME280;4385;48.848;8.924;2023-02-22T01:00:13;97280.47;;;15.38;100.00
8697;BME280;4385;48.848;8.924;2023-02-22T01:02:40;97280.50;;;15.37;100.00
8697;BME280;4385;48.848;8.924;2023-02-22T01:05:07;97282.19;;;15.36;100.00
8697;BME280;4385;48.848;8.924;2023-02-22T01:07:33;97274.59;;;15.34;100.00
8697;BME280;4385;48.848;8.924;2023-02-22T01:09:59;97276.31;;;15.34;100.00
8697;BME280;4385;48.848;8.924;2023-02-22T01:12:26;97268.72;;;15.32;100.00
8697;BME280;4385;48.848;8.924;2023-02-22T01:14:51;97266.22;;;15.29;100.00
8697;BME280;4385;48.848;8.924;2023-02-22T01:17:16;97261.97;;;15.28;100.00
8697;BME280;4385;48.848;8.924;2023-02-22T01:19:42;97260.31;;;15.27;100.00
8697;BME280;4385;48.848;8.924;2023-02-22T01:22:07;97266.22;;;15.28;100.00
8697;BME280;4385;48.848;8.924;2023-02-22T01:24:33;97259.47;;;15.25;100.00
8697;BME280;4385;48.848;8.924;2023-02-22T01:26:58;97259.47;;;15.25;100.00
8697;BME280;4385;48.848;8.924;2023-02-22T01:29:24;97254.41;;;15.24;100.00
8697;BME280;4385;48.848;8.924;2023-02-22T01:31:52;97245.13;;;15.24;100.00
8697;BME280;4385;48.848;8.924;2023-02-22T01:34:19;97243.44;;;15.23;100.00
8697;BME280;4385;48.848;8.924;2023-02-22T01:36:44;97245.13;;;15.23;100.00
8697;BME280;4385;48.848;8.924;2023-02-22T01:39:09;97239.22;;;15.22;100.00
8697;BME280;4385;48.848;8.924;2023-02-22T01:41:35;97246.81;;;15.22;100.00
8697;BME280;4385;48.848;8.924;2023-02-22T01:44:25;97238.41;;;15.21;100.00
8697;BME280;4385;48.848;8.924;2023-02-22T01:46:51;97233.34;;;15.20;100.00
8697;BME280;4385;48.848;8.924;2023-02-22T01:49:17;97230.78;;;15.20;100.00
8697;BME280;4385;48.848;8.924;2023-02-22T01:51:46;97227.44;;;15.18;100.00
8697;BME280;4385;48.848;8.924;2023-02-22T01:57:00;97216.44;;;15.16;100.00
8697;BME280;4385;48.848;8.924;2023-02-22T01:59:32;97214.78;;;15.15;100.00
8697;BME280;4385;48.848;8.924;2023-02-22T02:01:58;97214.78;;;15.15;100.00
8697;BME280;4385;48.848;8.924;2023-02-22T02:04:25;97214.78;;;15.13;100.00
8697;BME280;4385;48.848;8.924;2023-02-22T02:06:53;97205.50;;;15.12;100.00
8697;BME280;4385;48.848;8.924;2023-02-22T02:09:25;97203.81;;;15.11;100.00
8697;BME280;4385;48.848;8.924;2023-02-22T02:11:55;97197.06;;;15.10;100.00
8697;BME280;4385;48.848;8.924;2023-02-22T02:14:21;97199.63;;;15.08;100.00
8697;BME280;4385;48.848;8.924;2023-02-22T02:16:48;97192.88;;;15.07;100.00
8697;BME280;4385;48.848;8.924;2023-02-22T02:22:07;97190.34;;;15.07;100.00
8697;BME280;4385;48.848;8.924;2023-02-22T02:27:25;97182.72;;;15.07;100.00
8697;BME280;4385;48.848;8.924;2023-02-22T02:30:15;97181.88;;;15.07;100.00
8697;BME280;4385;48.848;8.924;2023-02-22T02:32:56;97183.56;;;15.06;100.00
8697;BME280;4385;48.848;8.924;2023-02-22T02:35:46;97179.38;;;15.05;100.00
8697;BME280;4385;48.848;8.924;2023-02-22T02:46:14;97172.66;;;15.01;100.00
8697;BME280;4385;48.848;8.924;2023-02-22T02:48:48;97169.25;;;15.02;100.00
8697;BME280;4385;48.848;8.924;2023-02-22T02:51:16;97166.75;;;15.01;100.00
8697;BME280;4385;48.848;8.924;2023-02-22T02:53:45;97166.75;;;14.99;100.00
8697;BME280;4385;48.848;8.924;2023-02-22T02:56:11;97162.56;;;14.98;100.00
8697;BME280;4385;48.848;8.924;2023-02-22T02:58:49;97158.28;;;14.99;100.00
8697;BME280;4385;48.848;8.924;2023-02-22T03:01:37;97160.03;;;14.98;100.00
8697;BME280;4385;48.848;8.924;2023-02-22T03:04:19;97151.56;;;14.96;100.00
8697;BME280;4385;48.848;8.924;2023-02-22T03:07:19;97146.53;;;14.94;100.00
8697;BME280;4385;48.848;8.924;2023-02-22T03:10:02;97147.38;;;14.95;100.00
8697;BME280;4385;48.848;8.924;2023-02-22T03:12:56;97147.41;;;14.93;100.00
8697;BME280;4385;48.848;8.924;2023-02-22T03:15:43;97140.59;;;14.94;100.00
8697;BME280;4385;48.848;8.924;2023-02-22T03:18:28;97144.00;;;14.93;100.00
8697;BME280;4385;48.848;8.924;2023-02-22T03:21:15;97144.84;;;14.93;100.00
8697;BME280;4385;48.848;8.924;2023-02-22T03:26:30;97133.84;;;14.93;100.00
8697;BME280;4385;48.848;8.924;2023-02-22T03:28:59;97134.72;;;14.93;100.00
8697;BME280;4385;48.848;8.924;2023-02-22T03:31:33;97131.31;;;14.93;100.00
8697;BME280;4385;48.848;8.924;2023-02-22T03:34:09;97134.72;;;14.93;100.00
8697;BME280;4385;48.848;8.924;2023-02-22T03:36:40;97128.78;;;14.93;100.00
8697;BME280;4385;48.848;8.924;2023-02-22T03:39:10;97124.59;;;14.92;100.00
8697;BME280;4385;48.848;8.924;2023-02-22T03:41:42;97120.34;;;14.91;100.00
8697;BME280;4385;48.848;8.924;2023-02-22T03:44:15;97125.41;;;14.91;100.00
8697;BME280;4385;48.848;8.924;2023-02-22T03:46:44;97123.75;;;14.90;100.00
8697;BME280;4385;48.848;8.924;2023-02-22T03:51:55;97125.44;;;14.89;100.00
8697;BME280;4385;48.848;8.924;2023-02-22T03:54:21;97126.28;;;14.90;100.00
8697;BME280;4385;48.848;8.924;2023-02-22T03:56:52;97121.25;;;14.88;100.00
8697;BME280;4385;48.848;8.924;2023-02-22T03:59:19;97127.16;;;14.89;100.00
8697;BME280;4385;48.848;8.924;2023-02-22T04:01:49;97119.53;;;14.89;100.00
8697;BME280;4385;48.848;8.924;2023-02-22T04:04:15;97121.25;;;14.87;100.00
8697;BME280;4385;48.848;8.924;2023-02-22T04:06:42;97118.72;;;14.87;100.00
8697;BME280;4385;48.848;8.924;2023-02-22T04:09:08;97117.88;;;14.86;100.00
8697;BME280;4385;48.848;8.924;2023-02-22T04:11:33;97121.28;;;14.85;100.00
8697;BME280;4385;48.848;8.924;2023-02-22T04:13:58;97115.34;;;14.84;100.00
8697;BME280;4385;48.848;8.924;2023-02-22T04:16:25;97116.22;;;14.83;100.00
8697;BME280;4385;48.848;8.924;2023-02-22T04:18:50;97118.75;;;14.83;100.00
8697;BME280;4385;48.848;8.924;2023-02-22T04:21:15;97118.78;;;14.82;100.00
8697;BME280;4385;48.848;8.924;2023-02-22T04:23:40;97118.81;;;14.80;100.00
8697;BME280;4385;48.848;8.924;2023-02-22T04:26:06;97118.81;;;14.80;100.00
8697;BME280;4385;48.848;8.924;2023-02-22T04:28:31;97123.88;;;14.80;100.00
8697;BME280;4385;48.848;8.924;2023-02-22T04:30:56;97117.94;;;14.78;100.00
8697;BME280;4385;48.848;8.924;2023-02-22T04:33:22;97112.88;;;14.78;100.00
8697;BME280;4385;48.848;8.924;2023-02-22T04:35:47;97116.28;;;14.79;100.00
8697;BME280;4385;48.848;8.924;2023-02-22T04:38:12;97113.75;;;14.77;100.00
8697;BME280;4385;48.848;8.924;2023-02-22T04:40:38;97114.59;;;14.78;100.00
8697;BME280;4385;48.848;8.924;2023-02-22T04:43:03;97113.75;;;14.79;100.00
8697;BME280;4385;48.848;8.924;2023-02-22T04:45:28;97118.78;;;14.82;100.00
8697;BME280;4385;48.848;8.924;2023-02-22T04:47:54;97115.34;;;14.84;100.00
8697;BME280;4385;48.848;8.924;2023-02-22T04:50:19;97113.66;;;14.87;100.00
8697;BME280;4385;48.848;8.924;2023-02-22T04:52:45;97111.91;;;14.92;100.00
8697;BME280;4385;48.848;8.924;2023-02-22T04:55:11;97114.41;;;14.93;100.00
8697;BME280;4385;48.848;8.924;2023-02-22T04:57:36;97112.66;;;14.97;100.00
8697;BME280;4385;48.848;8.924;2023-02-22T05:00:03;97113.47;;;14.99;100.00
8697;BME280;4385;48.848;8.924;2023-02-22T05:02:29;97115.09;;;15.03;100.00
8697;BME280;4385;48.848;8.924;2023-02-22T05:04:55;97115.09;;;15.03;100.00
8697;BME280;4385;48.848;8.924;2023-02-22T05:07:20;97115.94;;;15.05;100.00
8697;BME280;4385;48.848;8.924;2023-02-22T05:09:45;97109.94;;;15.09;100.00
8697;BME280;4385;48.848;8.924;2023-02-22T05:12:10;97105.69;;;15.12;100.00
8697;BME280;4385;48.848;8.924;2023-02-22T05:14:36;97097.19;;;15.13;100.00
8697;BME280;4385;48.848;8.924;2023-02-22T05:17:01;97101.47;;;15.12;100.00
8697;BME280;4385;48.848;8.924;2023-02-22T05:19:27;97105.69;;;15.12;100.00
8697;BME280;4385;48.848;8.924;2023-02-22T05:21:52;97096.44;;;15.07;100.00
8697;BME280;4385;48.848;8.924;2023-02-22T05:24:18;97101.56;;;15.04;100.00
8697;BME280;4385;48.848;8.924;2023-02-22T05:26:43;97098.22;;;15.02;100.00
8697;BME280;4385;48.848;8.924;2023-02-22T05:29:09;97092.31;;;15.00;100.00
8697;BME280;4385;48.848;8.924;2023-02-22T05:31:34;97093.19;;;14.99;100.00
8697;BME280;4385;48.848;8.924;2023-02-22T05:34:00;97090.66;;;14.98;100.00
8697;BME280;4385;48.848;8.924;2023-02-22T05:36:25;97091.56;;;14.95;100.00
8697;BME280;4385;48.848;8.924;2023-02-22T05:38:52;97090.72;;;14.94;100.00
8697;BME280;4385;48.848;8.924;2023-02-22T05:41:17;97096.66;;;14.92;100.00
8697;BME280;4385;48.848;8.924;2023-02-22T05:43:42;97095.00;;;14.89;100.00
8697;BME280;4385;48.848;8.924;2023-02-22T05:46:08;97093.34;;;14.87;100.00
8697;BME280;4385;48.848;8.924;2023-02-22T05:48:33;97098.44;;;14.87;100.00
8697;BME280;4385;48.848;8.924;2023-02-22T05:50:58;97098.44;;;14.85;100.00
8697;BME280;4385;48.848;8.924;2023-02-22T05:53:24;97099.31;;;14.84;100.00
8697;BME280;4385;48.848;8.924;2023-02-22T05:55:50;97101.00;;;14.83;100.00
8697;BME280;4385;48.848;8.924;2023-02-22T05:58:16;97093.41;;;14.82;100.00
8697;BME280;4385;48.848;8.924;2023-02-22T06:00:42;97095.13;;;14.80;100.00
8697;BME280;4385;48.848;8.924;2023-02-22T06:03:08;97096.84;;;14.79;100.00
8697;BME280;4385;48.848;8.924;2023-02-22T06:05:35;97093.44;;;14.77;100.00
8697;BME280;4385;48.848;8.924;2023-02-22T06:08:02;97091.78;;;14.76;100.00
8697;BME280;4385;48.848;8.924;2023-02-22T06:10:28;97090.94;;;14.74;100.00
8697;BME280;4385;48.848;8.924;2023-02-22T06:12:53;97096.88;;;14.73;100.00
8697;BME280;4385;48.848;8.924;2023-02-22T06:15:22;97096.88;;;14.73;100.00
8697;BME280;4385;48.848;8.924;2023-02-22T06:17:47;97101.13;;;14.71;100.00
8697;BME280;4385;48.848;8.924;2023-02-22T06:20:15;97098.59;;;14.71;100.00
8697;BME280;4385;48.848;8.924;2023-02-22T06:22:42;97095.22;;;14.69;100.00
8697;BME280;4385;48.848;8.924;2023-02-22T06:25:09;97094.44;;;14.67;100.00
8697;BME280;4385;48.848;8.924;2023-02-22T06:27:37;97107.13;;;14.67;100.00
8697;BME280;4385;48.848;8.924;2023-02-22T06:30:03;97105.41;;;14.66;100.00
8697;BME280;4385;48.848;8.924;2023-02-22T06:32:28;97108.81;;;14.65;100.00
8697;BME280;4385;48.848;8.924;2023-02-22T06:34:53;97111.38;;;14.63;100.00
8697;BME280;4385;48.848;8.924;2023-02-22T06:37:19;97113.09;;;14.61;100.00
8697;BME280;4385;48.848;8.924;2023-02-22T06:39:44;97113.97;;;14.58;100.00
8697;BME280;4385;48.848;8.924;2023-02-22T06:42:09;97116.50;;;14.58;100.00
8697;BME280;4385;48.848;8.924;2023-02-22T06:44:35;97119.91;;;14.57;100.00
8697;BME280;4385;48.848;8.924;2023-02-22T06:47:00;97118.22;;;14.56;100.00
8697;BME280;4385;48.848;8.924;2023-02-22T06:49:26;97124.16;;;14.55;100.00
8697;BME280;4385;48.848;8.924;2023-02-22T06:51:52;97129.22;;;14.55;100.00
8697;BME280;4385;48.848;8.924;2023-02-22T06:54:18;97124.16;;;14.55;100.00
8697;BME280;4385;48.848;8.924;2023-02-22T06:56:44;97128.38;;;14.53;100.00
8697;BME280;4385;48.848;8.924;2023-02-22T06:59:09;97124.13;;;14.58;100.00
8697;BME280;4385;48.848;8.924;2023-02-22T07:01:34;97126.56;;;14.66;100.00
8697;BME280;4385;48.848;8.924;2023-02-22T07:04:00;97130.63;;;14.78;100.00
8697;BME280;4385;48.848;8.924;2023-02-22T07:06:25;97137.31;;;14.89;100.00
8697;BME280;4385;48.848;8.924;2023-02-22T07:08:51;97137.13;;;15.01;100.00
8697;BME280;4385;48.848;8.924;2023-02-22T07:11:16;97142.88;;;15.13;100.00
8697;BME280;4385;48.848;8.924;2023-02-22T07:13:41;97140.16;;;15.25;100.00
8697;BME280;4385;48.848;8.924;2023-02-22T07:16:07;97145.13;;;15.34;100.00
8697;BME280;4385;48.848;8.924;2023-02-22T07:18:32;97146.72;;;15.42;100.00
8697;BME280;4385;48.848;8.924;2023-02-22T07:20:57;97142.38;;;15.49;100.00
8697;BME280;4385;48.848;8.924;2023-02-22T07:23:23;97152.41;;;15.56;100.00
8697;BME280;4385;48.848;8.924;2023-02-22T07:25:48;97149.00;;;15.59;100.00
8697;BME280;4385;48.848;8.924;2023-02-22T07:28:14;97153.19;;;15.62;100.00
8697;BME280;4385;48.848;8.924;2023-02-22T07:30:39;97157.38;;;15.63;100.00
8697;BME280;4385;48.848;8.924;2023-02-22T07:33:10;97148.03;;;15.65;100.00
8697;BME280;4385;48.848;8.924;2023-02-22T07:35:44;97156.50;;;15.67;100.00
8697;BME280;4385;48.848;8.924;2023-02-22T07:38:14;97151.34;;;15.70;100.00
8697;BME280;4385;48.848;8.924;2023-02-22T07:40:40;97151.31;;;15.73;100.00
8697;BME280;4385;48.848;8.924;2023-02-22T07:43:15;97154.66;;;15.75;100.00
8697;BME280;4385;48.848;8.924;2023-02-22T07:45:42;97150.34;;;15.79;100.00
8697;BME280;4385;48.848;8.924;2023-02-22T07:48:07;97146.06;;;15.82;100.00
8697;BME280;4385;48.848;8.924;2023-02-22T07:50:33;97139.22;;;15.86;100.00
8697;BME280;4385;48.848;8.924;2023-02-22T07:53:02;97143.41;;;15.90;100.00
8697;BME280;4385;48.848;8.924;2023-02-22T07:55:29;97143.31;;;15.95;100.00
8697;BME280;4385;48.848;8.924;2023-02-22T07:57:57;97144.13;;;16.00;100.00
8697;BME280;4385;48.848;8.924;2023-02-22T08:00:25;97145.72;;;16.06;100.00
8697;BME280;4385;48.848;8.924;2023-02-22T08:02:51;97143.94;;;16.11;100.00
8697;BME280;4385;48.848;8.924;2023-02-22T08:05:17;97140.50;;;16.14;100.00
8697;BME280;4385;48.848;8.924;2023-02-22T08:07:43;97143.78;;;16.19;100.00
8697;BME280;4385;48.848;8.924;2023-02-22T08:10:09;97139.47;;;16.23;100.00
8697;BME280;4385;48.848;8.924;2023-02-22T08:12:36;97135.16;;;16.26;100.00
8697;BME280;4385;48.848;8.924;2023-02-22T08:15:03;97135.13;;;16.29;100.00
8697;BME280;4385;48.848;8.924;2023-02-22T08:17:29;97145.16;;;16.36;100.00
8697;BME280;4385;48.848;8.924;2023-02-22T08:19:54;97140.00;;;16.40;100.00
8697;BME280;4385;48.848;8.924;2023-02-22T08:22:20;97133.22;;;16.41;100.00
8697;BME280;4385;48.848;8.924;2023-02-22T08:24:45;97137.41;;;16.43;100.00
8697;BME280;4385;48.848;8.924;2023-02-22T08:27:10;97133.16;;;16.44;100.00
8697;BME280;4385;48.848;8.924;2023-02-22T08:29:35;97136.47;;;16.46;100.00
8697;BME280;4385;48.848;8.924;2023-02-22T08:32:01;97139.84;;;16.48;100.00
8697;BME280;4385;48.848;8.924;2023-02-22T08:34:26;97132.19;;;16.50;100.00
8697;BME280;4385;48.848;8.924;2023-02-22T08:36:52;97138.13;;;16.50;100.00
8697;BME280;4385;48.848;8.924;2023-02-22T08:39:17;97144.03;;;16.51;100.00
8697;BME280;4385;48.848;8.924;2023-02-22T08:41:43;97134.69;;;16.51;100.00
8697;BME280;4385;48.848;8.924;2023-02-22T08:44:08;97138.06;;;16.53;100.00
8697;BME280;4385;48.848;8.924;2023-02-22T08:46:33;97142.25;;;16.56;100.00
8697;BME280;4385;48.848;8.924;2023-02-22T08:48:59;97143.03;;;16.60;100.00
8697;BME280;4385;48.848;8.924;2023-02-22T08:51:25;97142.09;;;16.64;100.00
8697;BME280;4385;48.848;8.924;2023-02-22T08:53:50;97135.22;;;16.69;100.00
8697;BME280;4385;48.848;8.924;2023-02-22T08:56:16;97139.34;;;16.73;100.00
8697;BME280;4385;48.848;8.924;2023-02-22T08:58:41;97132.47;;;16.78;100.00
8697;BME280;4385;48.848;8.924;2023-02-22T09:01:06;97135.72;;;16.83;100.00
8697;BME280;4385;48.848;8.924;2023-02-22T09:03:32;97138.22;;;16.87;100.00
8697;BME280;4385;48.848;8.924;2023-02-22T09:05:57;97132.22;;;16.91;100.00
8697;BME280;4385;48.848;8.924;2023-02-22T09:08:23;97133.81;;;16.95;100.00
8697;BME280;4385;48.848;8.924;2023-02-22T09:10:49;97126.91;;;17.00;100.00
8697;BME280;4385;48.848;8.924;2023-02-22T09:13:15;97125.16;;;17.02;100.00
8697;BME280;4385;48.848;8.924;2023-02-22T09:15:41;97127.63;;;17.05;100.00
8697;BME280;4385;48.848;8.924;2023-02-22T09:18:09;97128.47;;;17.06;100.00
8697;BME280;4385;48.848;8.924;2023-02-22T09:20:35;97126.78;;;17.06;100.00
8697;BME280;4385;48.848;8.924;2023-02-22T09:23:01;97122.53;;;17.05;100.00
8697;BME280;4385;48.848;8.924;2023-02-22T09:25:28;97129.38;;;17.05;100.00
8697;BME280;4385;48.848;8.924;2023-02-22T09:27:54;97122.56;;;17.04;100.00
8697;BME280;4385;48.848;8.924;2023-02-22T09:30:31;97125.09;;;17.05;100.00
8697;BME280;4385;48.848;8.924;2023-02-22T09:32:59;97122.53;;;17.05;100.00
8697;BME280;4385;48.848;8.924;2023-02-22T09:35:25;97125.94;;;17.06;100.00
8697;BME280;4385;48.848;8.924;2023-02-22T09:37:54;97120.00;;;17.05;100.00
8697;BME280;4385;48.848;8.924;2023-02-22T09:40:21;97125.97;;;17.04;100.00
8697;BME280;4385;48.848;8.924;2023-02-22T09:42:59;97120.03;;;17.04;100.00
8697;BME280;4385;48.848;8.924;2023-02-22T09:46:00;97116.59;;;17.06;100.00
8697;BME280;4385;48.848;8.924;2023-02-22T09:48:31;97109.78;;;17.08;100.00
8697;BME280;4385;48.848;8.924;2023-02-22T09:51:00;97110.59;;;17.11;100.00
8697;BME280;4385;48.848;8.924;2023-02-22T09:53:32;97104.53;;;17.15;100.00
8697;BME280;4385;48.848;8.924;2023-02-22T09:56:06;97106.16;;;17.19;100.00
8697;BME280;4385;48.848;8.924;2023-02-22T09:58:37;97099.28;;;17.23;100.00
8697;BME280;4385;48.848;8.924;2023-02-22T10:03:50;97107.63;;;17.29;100.00
8697;BME280;4385;48.848;8.924;2023-02-22T10:06:22;97110.03;;;17.36;100.00
8697;BME280;4385;48.848;8.924;2023-02-22T10:08:53;97109.06;;;17.40;100.00
8697;BME280;4385;48.848;8.924;2023-02-22T10:14:42;97102.09;;;17.48;100.00
8697;BME280;4385;48.848;8.924;2023-02-22T10:19:49;97095.25;;;17.50;100.00
8697;BME280;4385;48.848;8.924;2023-02-22T10:25:09;97096.09;;;17.49;100.00
8697;BME280;4385;48.848;8.924;2023-02-22T10:27:47;97097.78;;;17.50;100.00
8697;BME280;4385;48.848;8.924;2023-02-22T10:30:21;97096.06;;;17.51;100.00
8697;BME280;4385;48.848;8.924;2023-02-22T10:33:03;97083.28;;;17.52;100.00
8697;BME280;4385;48.848;8.924;2023-02-22T10:35:32;97095.19;;;17.53;100.00
8697;BME280;4385;48.848;8.924;2023-02-22T10:38:11;97081.59;;;17.53;100.00
8697;BME280;4385;48.848;8.924;2023-02-22T10:40:39;97084.13;;;17.53;100.00
8697;BME280;4385;48.848;8.924;2023-02-22T10:43:08;97079.97;;;17.50;100.00
8697;BME280;4385;48.848;8.924;2023-02-22T10:45:35;97079.13;;;17.50;100.00
8697;BME280;4385;48.848;8.924;2023-02-22T10:48:27;97090.16;;;17.50;100.00
8697;BME280;4385;48.848;8.924;2023-02-22T10:50:58;97087.47;;;17.56;100.00
8697;BME280;4385;48.848;8.924;2023-02-22T10:53:26;97086.56;;;17.57;100.00
8697;BME280;4385;48.848;8.924;2023-02-22T10:56:15;97082.31;;;17.58;100.00
8697;BME280;4385;48.848;8.924;2023-02-22T11:04:01;97080.34;;;17.68;100.00
8697;BME280;4385;48.848;8.924;2023-02-22T11:06:29;97085.38;;;17.71;100.00
8697;BME280;4385;48.848;8.924;2023-02-22T11:09:24;97086.09;;;17.76;100.00
8697;BME280;4385;48.848;8.924;2023-02-22T11:12:10;97078.38;;;17.79;100.00
8697;BME280;4385;48.848;8.924;2023-02-22T11:14:35;97075.75;;;17.82;100.00
8697;BME280;4385;48.848;8.924;2023-02-22T11:17:05;97077.41;;;17.83;100.00
8697;BME280;4385;48.848;8.924;2023-02-22T11:19:32;97071.47;;;17.85;100.00
8697;BME280;4385;48.848;8.924;2023-02-22T11:22:09;97066.41;;;17.83;100.00
8697;BME280;4385;48.848;8.924;2023-02-22T11:24:46;97072.31;;;17.83;100.00
8697;BME280;4385;48.848;8.924;2023-02-22T11:27:33;97064.72;;;17.82;100.00
8697;BME280;4385;48.848;8.924;2023-02-22T11:30:10;97065.59;;;17.81;100.00
8697;BME280;4385;48.848;8.924;2023-02-22T11:32:43;97060.53;;;17.79;100.00
8697;BME280;4385;48.848;8.924;2023-02-22T11:38:14;97056.34;;;17.78;100.00
8697;BME280;4385;48.848;8.924;2023-02-22T11:40:41;97052.97;;;17.76;100.00
8697;BME280;4385;48.848;8.924;2023-02-22T11:43:15;97050.50;;;17.73;100.00
8697;BME280;4385;48.848;8.924;2023-02-22T11:48:26;97050.50;;;17.73;100.00
8697;BME280;4385;48.848;8.924;2023-02-22T11:51:07;97053.00;;;17.75;100.00
8697;BME280;4385;48.848;8.924;2023-02-22T11:54:11;97037.66;;;17.78;100.00
8697;BME280;4385;48.848;8.924;2023-02-22T11:56:51;97038.44;;;17.80;100.00
8697;BME280;4385;48.848;8.924;2023-02-22T12:04:53;97034.72;;;17.92;100.00
8697;BME280;4385;48.848;8.924;2023-02-22T12:10:14;97028.47;;;18.02;100.00
8697;BME280;4385;48.848;8.924;2023-02-22T12:15:38;97023.22;;;18.08;100.00
8697;BME280;4385;48.848;8.924;2023-02-22T12:20:46;97018.97;;;18.09;100.00
8697;BME280;4385;48.848;8.924;2023-02-22T12:23:21;97011.31;;;18.09;100.00
8697;BME280;4385;48.848;8.924;2023-02-22T12:26:09;97017.31;;;18.08;100.00
8697;BME280;4385;48.848;8.924;2023-02-22T12:28:40;97013.09;;;18.05;100.00
8697;BME280;4385;48.848;8.924;2023-02-22T12:31:20;97014.84;;;18.05;100.00
8697;BME280;4385;48.848;8.924;2023-02-22T12:36:55;97017.50;;;18.00;100.00
8697;BME280;4385;48.848;8.924;2023-02-22T12:41:55;97010.81;;;17.96;100.00
8697;BME280;4385;48.848;8.924;2023-02-22T12:44:29;97019.25;;;17.98;100.00
8697;BME280;4385;48.848;8.924;2023-02-22T12:46:57;97015.81;;;17.99;100.00
8697;BME280;4385;48.848;8.924;2023-02-22T12:49:58;97016.63;;;18.01;100.00
8697;BME280;4385;48.848;8.924;2023-02-22T12:52:52;97019.13;;;18.03;100.00
8697;BME280;4385;48.848;8.924;2023-02-22T12:55:23;97008.00;;;18.05;100.00
8697;BME280;4385;48.848;8.924;2023-02-22T13:03:31;97012.81;;;18.16;100.00
8697;BME280;4385;48.848;8.924;2023-02-22T13:16:42;97003.97;;;18.30;100.00
8697;BME280;4385;48.848;8.924;2023-02-22T13:23:01;97001.47;;;18.28;100.00
8697;BME280;4385;48.848;8.924;2023-02-22T13:25:50;96997.22;;;18.27;100.00
8697;BME280;4385;48.848;8.924;2023-02-22T13:28:29;96998.16;;;18.25;100.00
8697;BME280;4385;48.848;8.924;2023-02-22T13:31:15;96994.75;;;18.24;100.00
8697;BME280;4385;48.848;8.924;2023-02-22T13:33:54;96999.00;;;18.25;100.00
8697;BME280;4385;48.848;8.924;2023-02-22T13:36:41;96994.66;;;18.27;100.00
8697;BME280;4385;48.848;8.924;2023-02-22T13:41:55;96997.97;;;18.31;100.00
8697;BME280;4385;48.848;8.924;2023-02-22T13:52:43;96992.25;;;18.23;100.00
8697;BME280;4385;48.848;8.924;2023-02-22T13:55:20;96992.25;;;18.23;100.00
8697;BME280;4385;48.848;8.924;2023-02-22T13:57:48;96994.84;;;18.21;100.00
8697;BME280;4385;48.848;8.924;2023-02-22T14:03:04;96992.25;;;18.23;100.00
8697;BME280;4385;48.848;8.924;2023-02-22T14:13:08;96988.94;;;18.21;100.00
8697;BME280;4385;48.848;8.924;2023-02-22T14:15:34;96987.19;;;18.21;100.00
8697;BME280;4385;48.848;8.924;2023-02-22T14:20:35;96983.91;;;18.17;100.00
8697;BME280;4385;48.848;8.924;2023-02-22T14:26:15;96991.75;;;18.11;100.00
8697;BME280;4385;48.848;8.924;2023-02-22T14:31:09;96985.00;;;18.07;100.00
8697;BME280;4385;48.848;8.924;2023-02-22T14:36:32;96988.59;;;18.01;100.00
8697;BME280;4385;48.848;8.924;2023-02-22T14:39:08;96983.56;;;17.98;100.00
8697;BME280;4385;48.848;8.924;2023-02-22T14:41:37;96988.72;;;17.97;100.00
8697;BME280;4385;48.848;8.924;2023-02-22T14:44:06;96984.50;;;17.95;100.00
8697;BME280;4385;48.848;8.924;2023-02-22T14:46:39;96979.50;;;17.92;100.00
8697;BME280;4385;48.848;8.924;2023-02-22T14:49:11;96988.84;;;17.92;100.00
8697;BME280;4385;48.848;8.924;2023-02-22T14:51:49;96981.25;;;17.90;100.00
8697;BME280;4385;48.848;8.924;2023-02-22T14:57:06;96990.63;;;17.88;100.00
8697;BME280;4385;48.848;8.924;2023-02-22T15:02:25;96988.16;;;17.85;100.00
8697;BME280;4385;48.848;8.924;2023-02-22T15:04:53;96983.91;;;17.86;100.00
8697;BME280;4385;48.848;8.924;2023-02-22T15:07:36;96986.47;;;17.86;100.00
8697;BME280;4385;48.848;8.924;2023-02-22T15:15:33;96984.81;;;17.85;100.00
8697;BME280;4385;48.848;8.924;2023-02-22T15:18:00;96977.19;;;17.83;100.00
8697;BME280;4385;48.848;8.924;2023-02-22T15:20:25;96984.84;;;17.83;100.00
8697;BME280;4385;48.848;8.924;2023-02-22T15:22:57;96982.28;;;17.83;100.00
8697;BME280;4385;48.848;8.924;2023-02-22T15:25:26;96978.91;;;17.82;100.00
8697;BME280;4385;48.848;8.924;2023-02-22T15:27:52;96980.59;;;17.82;100.00
8697;BME280;4385;48.848;8.924;2023-02-22T15:30:26;96982.34;;;17.81;100.00